createdAt,value
2022-08-16T00:00:25.058Z,20.69
2022-08-16T00:03:13.677Z,20.71
2022-08-16T00:05:48.466Z,20.70
2022-08-16T00:08:36.078Z,20.75
2022-08-16T00:11:15.586Z,20.73
2022-08-16T00:13:53.526Z,20.71
2022-08-16T00:17:05.504Z,20.68
2022-08-16T00:19:22.329Z,20.65
2022-08-16T00:21:56.135Z,20.65
2022-08-16T00:24:31.392Z,20.67
2022-08-16T00:27:03.351Z,20.59
2022-08-16T00:29:31.448Z,20.61
2022-08-16T00:32:05.939Z,20.59
2022-08-16T00:34:43.894Z,20.53
2022-08-16T00:37:17.130Z,20.52
2022-08-16T00:39:47.774Z,20.57
2022-08-16T00:42:30.244Z,20.57
2022-08-16T00:45:25.085Z,20.54
2022-08-16T00:47:54.912Z,20.51
2022-08-16T00:50:35.668Z,20.48
2022-08-16T00:53:11.947Z,20.41
2022-08-16T00:55:47.009Z,20.50
2022-08-16T00:58:18.793Z,20.54
2022-08-16T01:01:08.452Z,20.52
2022-08-16T01:03:41.433Z,20.43
2022-08-16T01:06:40.248Z,20.42
2022-08-16T01:09:06.105Z,20.46
2022-08-16T01:11:53.791Z,20.37
2022-08-16T01:14:30.061Z,20.25
2022-08-16T01:17:01.670Z,20.15
2022-08-16T01:19:35.214Z,20.20
2022-08-16T01:22:47.427Z,20.20
2022-08-16T01:25:07.796Z,20.18
2022-08-16T01:27:41.913Z,20.18
2022-08-16T01:30:20.500Z,20.20
2022-08-16T01:32:56.398Z,20.19
2022-08-16T01:35:46.148Z,20.22
2022-08-16T01:38:25.631Z,20.23
2022-08-16T01:41:05.876Z,20.25
2022-08-16T01:43:39.412Z,20.15
2022-08-16T01:46:37.885Z,20.09
2022-08-16T01:49:22.459Z,20.07
2022-08-16T01:52:00.942Z,20.19
2022-08-16T01:54:43.273Z,20.23
2022-08-16T01:57:12.935Z,20.18
2022-08-16T01:59:42.016Z,20.08
2022-08-16T02:02:27.529Z,20.04
2022-08-16T02:05:00.260Z,19.98
2022-08-16T02:07:30.677Z,19.99
2022-08-16T02:09:59.819Z,19.94
2022-08-16T02:12:51.336Z,19.94
2022-08-16T02:15:28.429Z,19.96
2022-08-16T02:17:59.363Z,19.96
2022-08-16T02:20:35.727Z,19.93
2022-08-16T02:23:08.884Z,19.92
2022-08-16T02:25:51.921Z,19.87
2022-08-16T02:28:23.691Z,19.83
2022-08-16T02:30:57.925Z,19.83
2022-08-16T02:33:42.855Z,19.85
2022-08-16T02:36:47.753Z,19.80
2022-08-16T02:39:19.673Z,19.78
2022-08-16T02:41:53.594Z,19.79
2022-08-16T02:44:23.479Z,19.73
2022-08-16T02:46:55.758Z,19.71
2022-08-16T02:49:58.164Z,19.69
2022-08-16T02:52:17.324Z,19.74
2022-08-16T02:54:55.562Z,19.73
2022-08-16T02:57:24.637Z,19.75
2022-08-16T02:59:52.963Z,19.71
2022-08-16T03:02:21.246Z,19.72
2022-08-16T03:05:01.715Z,19.72
2022-08-16T03:07:30.393Z,19.69
2022-08-16T03:10:09.648Z,19.69
2022-08-16T03:12:55.764Z,19.66
2022-08-16T03:15:27.647Z,19.64
2022-08-16T03:17:56.639Z,19.70
2022-08-16T03:20:32.600Z,19.68
2022-08-16T03:23:07.812Z,19.72
2022-08-16T03:25:40.969Z,19.71
2022-08-16T03:28:17.055Z,19.69
2022-08-16T03:30:45.713Z,19.72
2022-08-16T03:33:16.973Z,19.65
2022-08-16T03:35:51.400Z,19.69
2022-08-16T03:38:32.452Z,19.72
2022-08-16T03:41:25.722Z,19.72
2022-08-16T03:43:59.995Z,19.74
2022-08-16T03:46:47.338Z,19.79
2022-08-16T03:49:22.577Z,19.79
2022-08-16T03:51:53.279Z,19.82
2022-08-16T03:54:23.761Z,19.79
2022-08-16T03:56:57.887Z,19.84
2022-08-16T03:59:31.470Z,19.87
2022-08-16T04:02:06.057Z,19.92
2022-08-16T04:04:41.043Z,19.95
2022-08-16T04:07:09.734Z,19.95
2022-08-16T04:09:41.096Z,19.91
2022-08-16T04:13:04.265Z,19.91
2022-08-16T04:15:02.351Z,19.88
2022-08-16T04:17:31.393Z,19.92
2022-08-16T04:19:59.899Z,19.91
2022-08-16T04:22:29.640Z,19.92
2022-08-16T04:25:02.138Z,19.94
2022-08-16T04:27:35.072Z,19.97
2022-08-16T04:30:11.068Z,20.05
2022-08-16T04:32:44.741Z,20.10
2022-08-16T04:35:22.718Z,20.17
2022-08-16T04:37:53.707Z,20.21
2022-08-16T04:40:27.498Z,20.28
2022-08-16T04:42:56.888Z,20.30
2022-08-16T04:45:35.711Z,20.35
2022-08-16T04:48:06.587Z,20.36
2022-08-16T04:50:43.528Z,20.35
2022-08-16T04:53:16.798Z,20.44
2022-08-16T04:55:53.334Z,20.51
2022-08-16T04:58:44.082Z,20.53
2022-08-16T05:01:12.429Z,20.62
2022-08-16T05:04:00.951Z,20.65
2022-08-16T05:06:44.713Z,20.75
2022-08-16T05:09:22.995Z,20.83
2022-08-16T05:11:57.409Z,20.91
2022-08-16T05:14:45.157Z,20.95
2022-08-16T05:17:24.784Z,21.03
2022-08-16T05:19:57.491Z,21.08
2022-08-16T05:22:28.666Z,21.16
2022-08-16T05:24:58.722Z,21.13
2022-08-16T05:27:27.523Z,21.21
2022-08-16T05:30:00.793Z,21.25
2022-08-16T05:32:36.485Z,21.28
2022-08-16T05:35:15.609Z,21.24
2022-08-16T05:38:03.256Z,21.19
2022-08-16T05:40:57.324Z,21.20
2022-08-16T05:43:32.031Z,21.26
2022-08-16T05:46:00.856Z,21.29
2022-08-16T05:48:29.333Z,21.34
2022-08-16T05:51:02.037Z,21.39
2022-08-16T05:53:30.744Z,21.43
2022-08-16T05:56:19.492Z,21.43
2022-08-16T05:58:48.736Z,21.48
2022-08-16T06:01:17.387Z,21.47
2022-08-16T06:03:48.240Z,21.48
2022-08-16T06:06:28.936Z,21.53
2022-08-16T06:08:58.196Z,21.55
2022-08-16T06:11:26.999Z,21.58
2022-08-16T06:13:59.133Z,21.58
2022-08-16T06:16:39.457Z,21.63
2022-08-16T06:19:08.022Z,21.80
2022-08-16T06:21:40.527Z,21.88
2022-08-16T06:24:52.890Z,21.86
2022-08-16T06:26:58.479Z,21.86
2022-08-16T06:29:30.163Z,21.84
2022-08-16T06:31:58.631Z,21.85
2022-08-16T06:34:56.275Z,21.85
2022-08-16T06:37:15.909Z,21.85
2022-08-16T06:39:49.180Z,21.91
2022-08-16T06:42:47.485Z,21.99
2022-08-16T06:45:38.168Z,22.11
2022-08-16T06:48:21.334Z,22.30
2022-08-16T06:51:08.960Z,22.57
2022-08-16T06:53:38.576Z,22.79
2022-08-16T06:56:13.870Z,22.97
2022-08-16T06:58:55.092Z,22.98
2022-08-16T07:01:46.305Z,22.86
2022-08-16T07:04:32.620Z,22.98
2022-08-16T07:07:09.821Z,22.94
2022-08-16T07:09:39.476Z,22.93
2022-08-16T07:12:08.807Z,23.07
2022-08-16T07:14:40.774Z,23.13
2022-08-16T07:17:11.458Z,23.18
2022-08-16T07:20:03.474Z,23.23
2022-08-16T07:22:58.970Z,23.27
2022-08-16T07:25:43.106Z,23.34
2022-08-16T07:28:20.647Z,23.38
2022-08-16T07:30:54.018Z,23.45
2022-08-16T07:33:52.897Z,23.36
2022-08-16T07:36:27.700Z,23.31
2022-08-16T07:38:57.813Z,23.44
2022-08-16T07:41:27.287Z,23.47
2022-08-16T07:44:00.042Z,23.51
2022-08-16T07:46:39.617Z,23.56
2022-08-16T07:49:20.147Z,23.67
2022-08-16T07:51:49.001Z,23.66
2022-08-16T07:54:37.775Z,23.72
2022-08-16T07:57:11.316Z,23.78
2022-08-16T07:59:45.722Z,23.90
2022-08-16T08:02:20.319Z,23.79
2022-08-16T08:04:56.229Z,23.89
2022-08-16T08:07:28.254Z,24.07
2022-08-16T08:09:58.356Z,24.13
2022-08-16T08:12:32.383Z,24.01
2022-08-16T08:15:10.325Z,24.13
2022-08-16T08:17:43.198Z,24.07
2022-08-16T08:20:23.270Z,24.13
2022-08-16T08:23:00.902Z,24.13
2022-08-16T08:25:55.368Z,24.32
2022-08-16T08:28:26.857Z,24.25
2022-08-16T08:31:03.790Z,24.50
2022-08-16T08:33:46.662Z,24.73
2022-08-16T08:36:25.366Z,24.99
2022-08-16T08:39:13.186Z,25.10
2022-08-16T08:41:43.952Z,25.28
2022-08-16T08:44:28.713Z,25.60
2022-08-16T08:47:09.398Z,25.60
2022-08-16T08:49:46.196Z,25.32
2022-08-16T08:52:34.557Z,24.74
2022-08-16T08:55:09.100Z,24.28
2022-08-16T08:57:46.115Z,23.71
2022-08-16T09:00:30.310Z,23.15
2022-08-16T09:03:04.256Z,23.23
2022-08-16T09:05:35.710Z,23.12
2022-08-16T09:08:09.003Z,23.02
2022-08-16T09:11:02.030Z,22.82
2022-08-16T09:13:36.248Z,22.55
2022-08-16T09:16:04.799Z,22.58
2022-08-16T09:18:35.925Z,22.71
2022-08-16T09:21:09.508Z,23.01
2022-08-16T09:23:39.653Z,23.23
2022-08-16T09:26:44.865Z,23.37
2022-08-16T09:29:14.577Z,23.56
2022-08-16T09:31:53.512Z,23.70
2022-08-16T09:34:23.207Z,23.80
2022-08-16T09:36:53.988Z,23.84
2022-08-16T09:39:23.079Z,23.68
2022-08-16T09:41:54.542Z,23.67
2022-08-16T09:45:11.144Z,23.57
2022-08-16T09:47:14.875Z,23.52
2022-08-16T09:49:42.985Z,23.41
2022-08-16T09:52:22.373Z,23.57
2022-08-16T09:54:50.736Z,23.78
2022-08-16T09:57:18.827Z,23.71
2022-08-16T09:59:46.834Z,23.69
2022-08-16T10:02:26.914Z,23.51
2022-08-16T10:04:58.514Z,23.55
2022-08-16T10:07:43.999Z,23.51
2022-08-16T10:10:19.100Z,23.20
2022-08-16T10:13:16.183Z,23.18
2022-08-16T10:15:55.727Z,23.51
2022-08-16T10:18:56.858Z,23.57
2022-08-16T10:21:15.897Z,23.64
2022-08-16T10:23:44.993Z,23.81
2022-08-16T10:27:20.021Z,23.70
2022-08-16T10:29:05.929Z,23.61
2022-08-16T10:31:44.171Z,23.45
2022-08-16T10:34:31.947Z,23.20
2022-08-16T10:37:02.605Z,23.01
2022-08-16T10:39:40.497Z,22.88
2022-08-16T10:42:13.498Z,22.79
2022-08-16T10:44:42.779Z,22.53
2022-08-16T10:47:22.457Z,22.70
2022-08-16T10:49:50.813Z,22.56
2022-08-16T10:52:20.051Z,22.72
2022-08-16T10:57:37.145Z,23.30
2022-08-16T11:00:21.691Z,23.29
2022-08-16T11:02:58.320Z,23.29
2022-08-16T11:05:58.986Z,23.22
2022-08-16T11:08:28.299Z,23.22
2022-08-16T11:11:10.540Z,23.16
2022-08-16T11:14:05.868Z,23.08
2022-08-16T11:19:20.663Z,22.89
2022-08-16T11:24:43.159Z,22.84
2022-08-16T11:27:23.346Z,22.74
2022-08-16T11:29:55.585Z,22.75
2022-08-16T11:32:32.530Z,22.93
2022-08-16T11:35:11.102Z,23.09
2022-08-16T11:38:47.349Z,23.02
2022-08-16T11:40:53.159Z,23.25
2022-08-16T11:43:27.947Z,23.34
2022-08-16T11:45:58.557Z,23.70
2022-08-16T11:48:36.612Z,23.94
2022-08-16T11:51:05.661Z,24.11
2022-08-16T11:53:35.944Z,24.29
2022-08-16T11:56:39.497Z,24.61
2022-08-16T11:59:10.637Z,24.78
2022-08-16T12:01:55.085Z,24.90
2022-08-16T12:04:27.946Z,25.26
2022-08-16T12:06:56.299Z,25.38
2022-08-16T12:09:33.776Z,25.54
2022-08-16T12:12:09.395Z,25.71
2022-08-16T12:14:37.895Z,26.03
2022-08-16T12:17:08.310Z,26.28
2022-08-16T12:19:37.095Z,26.51
2022-08-16T12:22:18.915Z,27.17
2022-08-16T12:24:52.766Z,27.78
2022-08-16T12:27:25.740Z,28.49
2022-08-16T12:29:58.564Z,29.11
2022-08-16T12:32:41.575Z,29.74
2022-08-16T12:35:14.970Z,30.52
2022-08-16T12:37:47.296Z,30.83
2022-08-16T12:40:24.657Z,31.22
2022-08-16T12:42:58.998Z,31.59
2022-08-16T12:45:30.378Z,31.60
2022-08-16T12:48:34.719Z,31.94
2022-08-16T12:51:13.511Z,32.39
2022-08-16T12:53:51.799Z,32.72
2022-08-16T12:56:25.380Z,32.55
2022-08-16T12:58:56.114Z,32.88
2022-08-16T13:01:31.390Z,32.92
2022-08-16T13:04:12.337Z,33.24
2022-08-16T13:06:52.396Z,33.59
2022-08-16T13:09:26.577Z,33.40
2022-08-16T13:12:03.440Z,33.71
2022-08-16T13:14:35.867Z,33.76
2022-08-16T13:17:12.835Z,34.01
2022-08-16T13:20:07.780Z,34.01
2022-08-16T13:22:50.007Z,34.46
2022-08-16T13:25:22.096Z,34.31
2022-08-16T13:28:02.002Z,34.35
2022-08-16T13:30:47.682Z,34.49
2022-08-16T13:33:29.058Z,34.50
2022-08-16T13:36:00.898Z,35.02
2022-08-16T13:38:37.294Z,34.76
2022-08-16T13:41:09.020Z,34.31
2022-08-16T13:43:39.268Z,33.84
2022-08-16T13:46:08.778Z,33.79
2022-08-16T13:48:43.230Z,33.92
2022-08-16T13:51:19.056Z,34.63
2022-08-16T13:53:49.527Z,34.54
2022-08-16T13:56:25.053Z,34.93
2022-08-16T13:58:54.348Z,34.85
2022-08-16T14:01:23.298Z,35.06
2022-08-16T14:03:54.758Z,35.64
2022-08-16T14:06:24.183Z,36.11
2022-08-16T14:09:06.691Z,36.21
2022-08-16T14:11:35.630Z,36.60
2022-08-16T14:14:05.620Z,37.08
2022-08-16T14:16:35.348Z,37.14
2022-08-16T14:19:04.219Z,36.79
2022-08-16T14:21:34.845Z,36.94
2022-08-16T14:24:22.146Z,37.03
2022-08-16T14:26:53.970Z,36.88
2022-08-16T14:29:23.157Z,36.47
2022-08-16T14:31:54.145Z,36.62
2022-08-16T14:34:25.803Z,36.55
2022-08-16T14:36:57.650Z,37.10
2022-08-16T14:39:27.864Z,37.30
2022-08-16T14:41:57.044Z,36.98
2022-08-16T14:44:26.269Z,37.18
2022-08-16T14:46:56.327Z,37.37
2022-08-16T14:49:25.149Z,36.68
2022-08-16T14:51:53.848Z,37.05
2022-08-16T14:54:23.468Z,37.22
2022-08-16T14:56:57.790Z,37.32
2022-08-16T14:59:26.820Z,36.80
2022-08-16T15:01:58.686Z,36.69
2022-08-16T15:04:39.791Z,35.56
2022-08-16T15:07:12.576Z,35.35
2022-08-16T15:10:01.424Z,35.31
2022-08-16T15:12:33.582Z,34.50
2022-08-16T15:15:12.253Z,33.53
2022-08-16T15:17:56.328Z,34.14
2022-08-16T15:20:29.397Z,34.14
2022-08-16T15:23:00.341Z,34.58
2022-08-16T15:25:33.217Z,34.36
2022-08-16T15:28:05.377Z,34.38
2022-08-16T15:30:58.227Z,34.63
2022-08-16T15:33:29.460Z,34.73
2022-08-16T15:36:04.535Z,34.85
2022-08-16T15:38:57.127Z,34.46
2022-08-16T15:41:42.889Z,33.89
2022-08-16T15:44:14.917Z,32.95
2022-08-16T15:46:56.312Z,33.30
2022-08-16T15:49:37.498Z,33.51
2022-08-16T15:52:29.411Z,33.97
2022-08-16T15:55:13.042Z,34.25
2022-08-16T15:57:53.047Z,34.40
2022-08-16T16:00:21.810Z,34.76
2022-08-16T16:03:01.781Z,34.76
2022-08-16T16:05:30.277Z,34.57
2022-08-16T16:08:11.872Z,34.32
2022-08-16T16:10:47.675Z,33.99
2022-08-16T16:13:23.896Z,33.90
2022-08-16T16:15:53.570Z,34.00
2022-08-16T16:18:25.726Z,33.74
2022-08-16T16:21:00.841Z,33.57
2022-08-16T16:23:35.585Z,33.30
2022-08-16T16:26:10.208Z,33.41
2022-08-16T16:29:07.648Z,33.07
2022-08-16T16:31:27.345Z,32.73
2022-08-16T16:33:57.918Z,32.97
2022-08-16T16:36:29.518Z,32.65
2022-08-16T16:38:58.790Z,32.45
2022-08-16T16:41:30.384Z,32.24
2022-08-16T16:44:00.342Z,32.41
2022-08-16T16:46:42.167Z,32.26
2022-08-16T16:49:14.982Z,32.34
2022-08-16T16:51:44.510Z,31.89
2022-08-16T16:54:22.485Z,31.71
2022-08-16T16:56:58.583Z,31.53
2022-08-16T16:59:28.229Z,31.15
2022-08-16T17:02:41.406Z,31.20
2022-08-16T17:04:48.893Z,30.98
2022-08-16T17:07:17.765Z,30.71
2022-08-16T17:09:53.781Z,30.67
2022-08-16T17:12:25.276Z,30.53
2022-08-16T17:15:11.409Z,30.14
2022-08-16T17:18:00.304Z,29.90
2022-08-16T17:20:28.250Z,29.30
2022-08-16T17:22:57.357Z,28.82
2022-08-16T17:25:36.304Z,28.49
2022-08-16T17:28:58.900Z,28.41
2022-08-16T17:30:55.412Z,28.17
2022-08-16T17:33:23.574Z,27.98
2022-08-16T17:35:55.339Z,27.80
2022-08-16T17:38:33.075Z,27.69
2022-08-16T17:41:12.942Z,27.53
2022-08-16T17:43:44.577Z,27.37
2022-08-16T17:46:51.947Z,27.14
2022-08-16T17:49:06.442Z,26.88
2022-08-16T17:51:34.504Z,26.68
2022-08-16T17:54:03.679Z,26.47
2022-08-16T17:56:32.056Z,26.40
2022-08-16T17:59:02.376Z,26.35
2022-08-16T18:01:31.401Z,26.27
2022-08-16T18:04:07.120Z,26.19
2022-08-16T18:06:39.720Z,26.17
2022-08-16T18:09:08.616Z,26.09
2022-08-16T18:11:40.754Z,26.04
2022-08-16T18:14:10.785Z,25.96
2022-08-16T18:16:40.879Z,25.93
2022-08-16T18:19:10.315Z,25.89
2022-08-16T18:21:56.920Z,25.86
2022-08-16T18:24:28.542Z,25.79
2022-08-16T18:26:56.645Z,25.79
2022-08-16T18:29:49.827Z,25.75
2022-08-16T18:32:21.920Z,25.74
2022-08-16T18:34:54.720Z,25.73
2022-08-16T18:37:24.514Z,25.58
2022-08-16T18:39:52.721Z,25.35
2022-08-16T18:42:21.096Z,25.09
2022-08-16T18:44:49.324Z,24.87
2022-08-16T18:47:17.550Z,24.63
2022-08-16T18:49:45.688Z,24.44
2022-08-16T18:52:25.329Z,24.29
2022-08-16T18:55:02.081Z,24.16
2022-08-16T18:57:31.448Z,24.06
2022-08-16T18:59:59.649Z,23.94
2022-08-16T19:02:57.170Z,23.88
2022-08-16T19:05:29.266Z,23.78
2022-08-16T19:07:58.582Z,23.70
2022-08-16T19:10:26.831Z,23.62
2022-08-16T19:12:57.715Z,23.59
2022-08-16T19:15:28.892Z,23.52
2022-08-16T19:17:57.905Z,23.48
2022-08-16T19:20:28.238Z,23.42
2022-08-16T19:23:09.889Z,23.35
2022-08-16T19:25:48.082Z,23.27
2022-08-16T19:28:50.896Z,23.18
2022-08-16T19:31:18.222Z,23.15
2022-08-16T19:33:54.425Z,23.12
2022-08-16T19:36:35.130Z,23.05
2022-08-16T19:39:15.968Z,23.07
2022-08-16T19:41:53.361Z,23.03
2022-08-16T19:44:35.917Z,23.00
2022-08-16T19:47:04.115Z,22.92
2022-08-16T19:49:32.522Z,22.89
2022-08-16T19:52:17.418Z,22.81
2022-08-16T19:54:47.571Z,22.53
2022-08-16T19:57:20.469Z,22.24
2022-08-16T19:59:49.148Z,22.09
2022-08-16T20:02:35.847Z,22.12
2022-08-16T20:05:05.438Z,22.02
2022-08-16T20:07:33.602Z,21.98
2022-08-16T20:10:02.009Z,22.09
2022-08-16T20:12:30.275Z,22.06
2022-08-16T20:14:59.323Z,21.98
2022-08-16T20:17:27.470Z,21.87
2022-08-16T20:19:55.991Z,21.81
2022-08-16T20:22:51.728Z,21.73
2022-08-16T20:25:28.581Z,21.59
2022-08-16T20:27:58.365Z,21.51
2022-08-16T20:30:27.438Z,21.43
2022-08-16T20:32:56.142Z,21.33
2022-08-16T20:35:27.675Z,21.22
2022-08-16T20:37:56.687Z,21.12
2022-08-16T20:40:35.000Z,21.05
2022-08-16T20:43:07.437Z,21.01
2022-08-16T20:45:37.110Z,20.97
2022-08-16T20:48:06.887Z,20.88
2022-08-16T20:50:36.036Z,20.85
2022-08-16T20:53:05.663Z,20.78
2022-08-16T20:55:35.979Z,20.75
2022-08-16T20:58:03.916Z,20.75
2022-08-16T21:00:33.644Z,20.81
2022-08-16T21:03:10.269Z,20.82
2022-08-16T21:05:38.446Z,20.78
2022-08-16T21:08:26.738Z,20.76
2022-08-16T21:10:57.073Z,20.72
2022-08-16T21:13:25.840Z,20.75
2022-08-16T21:15:54.065Z,20.71
2022-08-16T21:18:22.226Z,20.72
2022-08-16T21:20:50.516Z,20.73
2022-08-16T21:23:18.731Z,20.69
2022-08-16T21:25:58.549Z,20.66
2022-08-16T21:28:36.852Z,20.66
2022-08-16T21:31:16.034Z,20.65
2022-08-16T21:33:55.039Z,20.64
2022-08-16T21:36:35.009Z,20.62
2022-08-16T21:39:06.011Z,20.60
2022-08-16T21:41:38.512Z,20.58
2022-08-16T21:44:06.861Z,20.54
2022-08-16T21:46:35.096Z,20.54
2022-08-16T21:49:04.856Z,20.55
2022-08-16T21:51:32.992Z,20.53
2022-08-16T21:54:01.071Z,20.54
2022-08-16T21:56:29.733Z,20.52
2022-08-16T21:58:57.910Z,20.50
2022-08-16T22:01:26.691Z,20.47
2022-08-16T22:04:01.634Z,20.41
2022-08-16T22:06:44.265Z,20.37
2022-08-16T22:09:17.441Z,20.31
2022-08-16T22:11:45.531Z,20.25
2022-08-16T22:14:14.153Z,20.19
2022-08-16T22:16:43.608Z,20.13
2022-08-16T22:19:13.782Z,20.05
2022-08-16T22:21:41.905Z,19.93
2022-08-16T22:24:10.176Z,19.90
2022-08-16T22:26:43.095Z,19.87
2022-08-16T22:29:13.993Z,19.84
2022-08-16T22:31:45.891Z,19.80
2022-08-16T22:34:14.429Z,19.78
2022-08-16T22:36:42.785Z,19.75
2022-08-16T22:39:14.349Z,19.72
2022-08-16T22:41:45.836Z,19.70
2022-08-16T22:44:14.256Z,19.68
2022-08-16T22:46:42.595Z,19.66
2022-08-16T22:49:11.744Z,19.64
2022-08-16T22:51:40.535Z,19.62
2022-08-16T22:54:45.822Z,19.57
2022-08-16T22:56:57.762Z,19.51
2022-08-16T22:59:25.947Z,19.46
2022-08-16T23:01:54.719Z,19.41
2022-08-16T23:04:24.972Z,19.39
2022-08-16T23:06:53.098Z,19.37
2022-08-16T23:09:21.262Z,19.37
2022-08-16T23:11:49.518Z,19.35
2022-08-16T23:14:18.456Z,19.29
2022-08-16T23:16:47.516Z,19.23
2022-08-16T23:19:16.786Z,19.16
2022-08-16T23:21:48.422Z,19.10
2022-08-16T23:24:20.576Z,19.06
2022-08-16T23:26:49.715Z,19.03
2022-08-16T23:29:23.629Z,19.03
2022-08-16T23:31:55.557Z,19.03
2022-08-16T23:34:25.590Z,19.03
2022-08-16T23:36:53.616Z,19.03
2022-08-16T23:39:21.621Z,19.01
2022-08-16T23:41:49.685Z,18.97
2022-08-16T23:44:55.207Z,18.93
2022-08-16T23:47:07.185Z,18.91
2022-08-16T23:50:02.268Z,18.89
2022-08-16T23:52:40.540Z,18.88
2022-08-16T23:55:11.988Z,18.82
2022-08-16T23:57:40.671Z,18.78
